sensor_id;sensor_type;location;lat;lon;timestamp;P1;durP1;ratioP1;P2;durP2;ratioP2
3700;SDS011;1866;48.374;10.766;2022-11-15T00:01:59;114.70;;;17.10;;
3700;SDS011;1866;48.374;10.766;2022-11-15T00:04:27;110.00;;;16.07;;
3700;SDS011;1866;48.374;10.766;2022-11-15T00:06:54;108.20;;;15.60;;
3700;SDS011;1866;48.374;10.766;2022-11-15T00:09:21;110.80;;;16.77;;
3700;SDS011;1866;48.374;10.766;2022-11-15T00:11:47;112.73;;;17.20;;
3700;SDS011;1866;48.374;10.766;2022-11-15T00:14:14;117.83;;;16.80;;
3700;SDS011;1866;48.374;10.766;2022-11-15T00:16:41;108.27;;;15.10;;
3700;SDS011;1866;48.374;10.766;2022-11-15T00:19:08;109.37;;;15.23;;
3700;SDS011;1866;48.374;10.766;2022-11-15T00:21:36;106.40;;;14.40;;
3700;SDS011;1866;48.374;10.766;2022-11-15T00:24:03;106.30;;;13.93;;
3700;SDS011;1866;48.374;10.766;2022-11-15T00:26:30;109.60;;;14.70;;
3700;SDS011;1866;48.374;10.766;2022-11-15T00:28:57;110.23;;;15.57;;
3700;SDS011;1866;48.374;10.766;2022-11-15T00:31:24;108.07;;;16.00;;
3700;SDS011;1866;48.374;10.766;2022-11-15T00:33:50;109.30;;;16.40;;
3700;SDS011;1866;48.374;10.766;2022-11-15T00:36:17;108.53;;;15.57;;
3700;SDS011;1866;48.374;10.766;2022-11-15T00:38:45;106.20;;;14.70;;
3700;SDS011;1866;48.374;10.766;2022-11-15T00:41:12;107.77;;;15.00;;
3700;SDS011;1866;48.374;10.766;2022-11-15T00:43:39;110.63;;;15.77;;
3700;SDS011;1866;48.374;10.766;2022-11-15T00:46:08;107.47;;;15.10;;
3700;SDS011;1866;48.374;10.766;2022-11-15T00:48:35;108.20;;;15.47;;
3700;SDS011;1866;48.374;10.766;2022-11-15T00:51:02;108.33;;;16.30;;
3700;SDS011;1866;48.374;10.766;2022-11-15T00:53:29;107.93;;;15.63;;
3700;SDS011;1866;48.374;10.766;2022-11-15T00:55:57;109.50;;;16.30;;
3700;SDS011;1866;48.374;10.766;2022-11-15T00:58:24;106.90;;;15.50;;
3700;SDS011;1866;48.374;10.766;2022-11-15T01:00:50;107.57;;;15.30;;
3700;SDS011;1866;48.374;10.766;2022-11-15T01:03:17;108.77;;;16.10;;
3700;SDS011;1866;48.374;10.766;2022-11-15T01:05:45;107.27;;;15.87;;
3700;SDS011;1866;48.374;10.766;2022-11-15T01:08:12;107.00;;;15.73;;
3700;SDS011;1866;48.374;10.766;2022-11-15T01:10:39;106.77;;;15.27;;
3700;SDS011;1866;48.374;10.766;2022-11-15T01:13:07;106.33;;;14.90;;
3700;SDS011;1866;48.374;10.766;2022-11-15T01:15:38;107.00;;;14.70;;
3700;SDS011;1866;48.374;10.766;2022-11-15T01:18:05;107.37;;;15.37;;
3700;SDS011;1866;48.374;10.766;2022-11-15T01:20:32;121.17;;;20.43;;
3700;SDS011;1866;48.374;10.766;2022-11-15T01:22:59;112.20;;;17.33;;
3700;SDS011;1866;48.374;10.766;2022-11-15T01:25:26;107.50;;;16.10;;
3700;SDS011;1866;48.374;10.766;2022-11-15T01:27:53;107.67;;;16.07;;
3700;SDS011;1866;48.374;10.766;2022-11-15T01:30:24;109.20;;;16.27;;
3700;SDS011;1866;48.374;10.766;2022-11-15T01:32:51;107.47;;;15.90;;
3700;SDS011;1866;48.374;10.766;2022-11-15T01:35:18;106.00;;;15.20;;
3700;SDS011;1866;48.374;10.766;2022-11-15T01:37:45;109.10;;;15.27;;
3700;SDS011;1866;48.374;10.766;2022-11-15T01:40:12;106.97;;;15.23;;
3700;SDS011;1866;48.374;10.766;2022-11-15T01:42:39;106.33;;;15.53;;
3700;SDS011;1866;48.374;10.766;2022-11-15T01:45:07;108.70;;;16.00;;
3700;SDS011;1866;48.374;10.766;2022-11-15T01:47:41;107.70;;;16.07;;
3700;SDS011;1866;48.374;10.766;2022-11-15T01:50:13;106.37;;;14.97;;
3700;SDS011;1866;48.374;10.766;2022-11-15T01:52:43;107.80;;;15.40;;
3700;SDS011;1866;48.374;10.766;2022-11-15T01:55:13;106.97;;;15.17;;
3700;SDS011;1866;48.374;10.766;2022-11-15T01:57:42;106.97;;;15.57;;
3700;SDS011;1866;48.374;10.766;2022-11-15T02:00:13;107.03;;;15.90;;
3700;SDS011;1866;48.374;10.766;2022-11-15T02:02:42;108.90;;;16.50;;
3700;SDS011;1866;48.374;10.766;2022-11-15T02:05:09;107.30;;;15.60;;
3700;SDS011;1866;48.374;10.766;2022-11-15T02:07:37;108.77;;;16.50;;
3700;SDS011;1866;48.374;10.766;2022-11-15T02:10:06;108.70;;;16.30;;
3700;SDS011;1866;48.374;10.766;2022-11-15T02:12:34;108.97;;;16.57;;
3700;SDS011;1866;48.374;10.766;2022-11-15T02:15:02;107.83;;;16.27;;
3700;SDS011;1866;48.374;10.766;2022-11-15T02:17:33;110.63;;;16.37;;
3700;SDS011;1866;48.374;10.766;2022-11-15T02:20:27;107.57;;;16.40;;
3700;SDS011;1866;48.374;10.766;2022-11-15T02:26:19;106.87;;;14.77;;
3700;SDS011;1866;48.374;10.766;2022-11-15T02:29:01;110.17;;;15.57;;
3700;SDS011;1866;48.374;10.766;2022-11-15T02:31:36;107.97;;;15.67;;
3700;SDS011;1866;48.374;10.766;2022-11-15T02:34:11;112.87;;;17.00;;
3700;SDS011;1866;48.374;10.766;2022-11-15T02:36:46;108.07;;;16.20;;
3700;SDS011;1866;48.374;10.766;2022-11-15T02:39:22;108.13;;;16.30;;
3700;SDS011;1866;48.374;10.766;2022-11-15T02:41:54;110.25;;;16.88;;
3700;SDS011;1866;48.374;10.766;2022-11-15T02:44:30;108.90;;;16.80;;
3700;SDS011;1866;48.374;10.766;2022-11-15T02:47:01;109.75;;;17.48;;
3700;SDS011;1866;48.374;10.766;2022-11-15T02:49:39;108.83;;;17.03;;
3700;SDS011;1866;48.374;10.766;2022-11-15T02:52:08;109.50;;;17.47;;
3700;SDS011;1866;48.374;10.766;2022-11-15T02:54:35;111.10;;;17.90;;
3700;SDS011;1866;48.374;10.766;2022-11-15T02:57:03;111.60;;;17.87;;
3700;SDS011;1866;48.374;10.766;2022-11-15T02:59:37;112.57;;;18.67;;
3700;SDS011;1866;48.374;10.766;2022-11-15T03:02:34;110.47;;;17.90;;
3700;SDS011;1866;48.374;10.766;2022-11-15T03:05:10;109.13;;;16.70;;
3700;SDS011;1866;48.374;10.766;2022-11-15T03:07:46;111.07;;;16.57;;
3700;SDS011;1866;48.374;10.766;2022-11-15T03:10:18;108.70;;;16.77;;
3700;SDS011;1866;48.374;10.766;2022-11-15T03:12:54;108.90;;;16.88;;
3700;SDS011;1866;48.374;10.766;2022-11-15T03:15:25;108.90;;;17.20;;
3700;SDS011;1866;48.374;10.766;2022-11-15T03:17:58;110.18;;;18.10;;
3700;SDS011;1866;48.374;10.766;2022-11-15T03:20:27;109.97;;;17.63;;
3700;SDS011;1866;48.374;10.766;2022-11-15T03:22:55;110.37;;;18.40;;
3700;SDS011;1866;48.374;10.766;2022-11-15T03:25:26;111.82;;;20.10;;
3700;SDS011;1866;48.374;10.766;2022-11-15T03:27:55;111.03;;;19.35;;
3700;SDS011;1866;48.374;10.766;2022-11-15T03:30:24;109.88;;;17.88;;
3700;SDS011;1866;48.374;10.766;2022-11-15T03:32:53;109.37;;;18.07;;
3700;SDS011;1866;48.374;10.766;2022-11-15T03:35:24;110.20;;;17.47;;
3700;SDS011;1866;48.374;10.766;2022-11-15T03:37:54;109.47;;;17.27;;
3700;SDS011;1866;48.374;10.766;2022-11-15T03:40:29;112.33;;;18.00;;
3700;SDS011;1866;48.374;10.766;2022-11-15T03:43:02;109.30;;;16.90;;
3700;SDS011;1866;48.374;10.766;2022-11-15T03:45:34;108.87;;;16.93;;
3700;SDS011;1866;48.374;10.766;2022-11-15T03:48:09;109.10;;;16.35;;
3700;SDS011;1866;48.374;10.766;2022-11-15T03:50:38;108.10;;;16.50;;
3700;SDS011;1866;48.374;10.766;2022-11-15T03:53:06;109.13;;;17.27;;
3700;SDS011;1866;48.374;10.766;2022-11-15T03:55:33;111.50;;;18.20;;
3700;SDS011;1866;48.374;10.766;2022-11-15T03:58:01;110.15;;;17.90;;
3700;SDS011;1866;48.374;10.766;2022-11-15T04:00:28;111.80;;;18.47;;
3700;SDS011;1866;48.374;10.766;2022-11-15T04:02:55;109.85;;;17.85;;
3700;SDS011;1866;48.374;10.766;2022-11-15T04:05:24;109.37;;;17.30;;
3700;SDS011;1866;48.374;10.766;2022-11-15T04:07:51;109.87;;;17.73;;
3700;SDS011;1866;48.374;10.766;2022-11-15T04:10:18;109.80;;;17.40;;
3700;SDS011;1866;48.374;10.766;2022-11-15T04:12:45;110.00;;;17.27;;
3700;SDS011;1866;48.374;10.766;2022-11-15T04:15:13;109.90;;;16.50;;
3700;SDS011;1866;48.374;10.766;2022-11-15T04:17:42;110.47;;;16.90;;
3700;SDS011;1866;48.374;10.766;2022-11-15T04:20:11;109.57;;;16.70;;
3700;SDS011;1866;48.374;10.766;2022-11-15T04:22:59;109.00;;;15.13;;
3700;SDS011;1866;48.374;10.766;2022-11-15T04:26:00;109.38;;;15.25;;
3700;SDS011;1866;48.374;10.766;2022-11-15T04:28:28;108.88;;;15.73;;
3700;SDS011;1866;48.374;10.766;2022-11-15T04:30:55;106.68;;;15.40;;
3700;SDS011;1866;48.374;10.766;2022-11-15T04:33:23;110.57;;;16.73;;
3700;SDS011;1866;48.374;10.766;2022-11-15T04:35:50;108.15;;;16.27;;
3700;SDS011;1866;48.374;10.766;2022-11-15T04:38:33;108.72;;;16.98;;
3700;SDS011;1866;48.374;10.766;2022-11-15T04:41:00;108.93;;;17.43;;
3700;SDS011;1866;48.374;10.766;2022-11-15T04:43:27;112.28;;;17.35;;
3700;SDS011;1866;48.374;10.766;2022-11-15T04:45:54;109.82;;;17.83;;
3700;SDS011;1866;48.374;10.766;2022-11-15T04:48:21;113.40;;;18.27;;
3700;SDS011;1866;48.374;10.766;2022-11-15T04:50:48;109.80;;;17.50;;
3700;SDS011;1866;48.374;10.766;2022-11-15T04:53:15;110.40;;;16.88;;
3700;SDS011;1866;48.374;10.766;2022-11-15T04:55:45;109.18;;;16.95;;
3700;SDS011;1866;48.374;10.766;2022-11-15T04:58:12;110.63;;;16.67;;
3700;SDS011;1866;48.374;10.766;2022-11-15T05:00:39;110.18;;;16.00;;
3700;SDS011;1866;48.374;10.766;2022-11-15T05:03:06;117.38;;;16.67;;
3700;SDS011;1866;48.374;10.766;2022-11-15T05:05:52;110.97;;;16.80;;
3700;SDS011;1866;48.374;10.766;2022-11-15T05:08:19;109.03;;;16.10;;
3700;SDS011;1866;48.374;10.766;2022-11-15T05:10:47;108.93;;;16.77;;
3700;SDS011;1866;48.374;10.766;2022-11-15T05:13:14;109.28;;;15.85;;
3700;SDS011;1866;48.374;10.766;2022-11-15T05:15:40;107.13;;;15.30;;
3700;SDS011;1866;48.374;10.766;2022-11-15T05:18:07;107.30;;;15.77;;
3700;SDS011;1866;48.374;10.766;2022-11-15T05:20:34;109.17;;;16.70;;
3700;SDS011;1866;48.374;10.766;2022-11-15T05:23:01;108.53;;;16.55;;
3700;SDS011;1866;48.374;10.766;2022-11-15T05:25:28;109.53;;;16.02;;
3700;SDS011;1866;48.374;10.766;2022-11-15T05:27:56;109.47;;;16.73;;
3700;SDS011;1866;48.374;10.766;2022-11-15T05:30:23;109.33;;;16.77;;
3700;SDS011;1866;48.374;10.766;2022-11-15T05:32:50;109.55;;;16.70;;
3700;SDS011;1866;48.374;10.766;2022-11-15T05:35:18;112.82;;;17.08;;
3700;SDS011;1866;48.374;10.766;2022-11-15T05:37:51;109.50;;;17.35;;
3700;SDS011;1866;48.374;10.766;2022-11-15T05:40:18;110.93;;;17.88;;
3700;SDS011;1866;48.374;10.766;2022-11-15T05:42:45;108.63;;;16.92;;
3700;SDS011;1866;48.374;10.766;2022-11-15T05:45:15;118.97;;;22.10;;
3700;SDS011;1866;48.374;10.766;2022-11-15T05:47:42;128.25;;;25.83;;
3700;SDS011;1866;48.374;10.766;2022-11-15T05:50:10;144.02;;;30.90;;
3700;SDS011;1866;48.374;10.766;2022-11-15T05:52:38;167.95;;;37.60;;
3700;SDS011;1866;48.374;10.766;2022-11-15T05:55:05;217.73;;;55.50;;
3700;SDS011;1866;48.374;10.766;2022-11-15T05:57:35;156.43;;;30.45;;
3700;SDS011;1866;48.374;10.766;2022-11-15T06:00:03;117.80;;;19.80;;
3700;SDS011;1866;48.374;10.766;2022-11-15T06:02:32;119.07;;;19.50;;
3700;SDS011;1866;48.374;10.766;2022-11-15T06:05:00;109.28;;;16.90;;
3700;SDS011;1866;48.374;10.766;2022-11-15T06:07:26;111.03;;;16.80;;
3700;SDS011;1866;48.374;10.766;2022-11-15T06:09:55;109.68;;;17.05;;
3700;SDS011;1866;48.374;10.766;2022-11-15T06:12:21;111.03;;;17.75;;
3700;SDS011;1866;48.374;10.766;2022-11-15T06:14:49;115.05;;;18.85;;
3700;SDS011;1866;48.374;10.766;2022-11-15T06:17:16;114.68;;;19.10;;
3700;SDS011;1866;48.374;10.766;2022-11-15T06:19:44;112.77;;;19.07;;
3700;SDS011;1866;48.374;10.766;2022-11-15T06:22:11;110.43;;;17.02;;
3700;SDS011;1866;48.374;10.766;2022-11-15T06:24:38;109.82;;;17.05;;
3700;SDS011;1866;48.374;10.766;2022-11-15T06:27:06;110.28;;;16.75;;
3700;SDS011;1866;48.374;10.766;2022-11-15T06:29:32;111.07;;;18.20;;
3700;SDS011;1866;48.374;10.766;2022-11-15T06:31:59;111.57;;;18.33;;
3700;SDS011;1866;48.374;10.766;2022-11-15T06:34:27;111.28;;;17.85;;
3700;SDS011;1866;48.374;10.766;2022-11-15T06:36:55;112.60;;;18.40;;
3700;SDS011;1866;48.374;10.766;2022-11-15T06:39:22;114.03;;;18.85;;
3700;SDS011;1866;48.374;10.766;2022-11-15T06:41:50;113.65;;;18.42;;
3700;SDS011;1866;48.374;10.766;2022-11-15T06:44:16;110.65;;;17.98;;
3700;SDS011;1866;48.374;10.766;2022-11-15T06:46:43;113.85;;;18.40;;
3700;SDS011;1866;48.374;10.766;2022-11-15T06:49:10;114.43;;;18.25;;
3700;SDS011;1866;48.374;10.766;2022-11-15T06:51:37;112.13;;;17.30;;
3700;SDS011;1866;48.374;10.766;2022-11-15T06:54:05;119.43;;;17.05;;
3700;SDS011;1866;48.374;10.766;2022-11-15T06:56:33;111.18;;;18.35;;
3700;SDS011;1866;48.374;10.766;2022-11-15T06:59:00;113.00;;;18.35;;
3700;SDS011;1866;48.374;10.766;2022-11-15T07:01:27;111.43;;;17.95;;
3700;SDS011;1866;48.374;10.766;2022-11-15T07:03:54;112.93;;;19.77;;
3700;SDS011;1866;48.374;10.766;2022-11-15T07:06:21;110.38;;;18.25;;
3700;SDS011;1866;48.374;10.766;2022-11-15T07:08:48;110.88;;;18.30;;
3700;SDS011;1866;48.374;10.766;2022-11-15T07:11:16;111.68;;;19.23;;
3700;SDS011;1866;48.374;10.766;2022-11-15T07:13:43;111.18;;;18.45;;
3700;SDS011;1866;48.374;10.766;2022-11-15T07:16:10;112.73;;;19.30;;
3700;SDS011;1866;48.374;10.766;2022-11-15T07:18:38;112.10;;;19.23;;
3700;SDS011;1866;48.374;10.766;2022-11-15T07:21:06;115.35;;;19.38;;
3700;SDS011;1866;48.374;10.766;2022-11-15T07:23:35;111.28;;;18.35;;
3700;SDS011;1866;48.374;10.766;2022-11-15T07:26:03;112.70;;;19.03;;
3700;SDS011;1866;48.374;10.766;2022-11-15T07:28:31;112.50;;;18.70;;
3700;SDS011;1866;48.374;10.766;2022-11-15T07:31:01;110.63;;;18.58;;
3700;SDS011;1866;48.374;10.766;2022-11-15T07:33:28;113.63;;;19.70;;
3700;SDS011;1866;48.374;10.766;2022-11-15T07:35:58;121.10;;;22.53;;
3700;SDS011;1866;48.374;10.766;2022-11-15T07:38:26;144.67;;;32.07;;
3700;SDS011;1866;48.374;10.766;2022-11-15T07:40:55;131.25;;;27.48;;
3700;SDS011;1866;48.374;10.766;2022-11-15T07:43:23;119.03;;;22.92;;
3700;SDS011;1866;48.374;10.766;2022-11-15T07:45:52;117.43;;;21.40;;
3700;SDS011;1866;48.374;10.766;2022-11-15T07:48:19;117.40;;;21.90;;
3700;SDS011;1866;48.374;10.766;2022-11-15T07:50:46;115.78;;;21.02;;
3700;SDS011;1866;48.374;10.766;2022-11-15T07:53:13;112.63;;;20.33;;
3700;SDS011;1866;48.374;10.766;2022-11-15T07:55:40;116.77;;;19.80;;
3700;SDS011;1866;48.374;10.766;2022-11-15T07:58:08;112.97;;;20.13;;
3700;SDS011;1866;48.374;10.766;2022-11-15T08:00:37;116.40;;;22.37;;
3700;SDS011;1866;48.374;10.766;2022-11-15T08:03:05;117.80;;;21.37;;
3700;SDS011;1866;48.374;10.766;2022-11-15T08:05:34;114.80;;;20.80;;
3700;SDS011;1866;48.374;10.766;2022-11-15T08:08:01;115.00;;;21.50;;
3700;SDS011;1866;48.374;10.766;2022-11-15T08:10:29;115.60;;;21.40;;
3700;SDS011;1866;48.374;10.766;2022-11-15T08:12:56;116.87;;;20.93;;
3700;SDS011;1866;48.374;10.766;2022-11-15T08:15:24;116.07;;;21.17;;
3700;SDS011;1866;48.374;10.766;2022-11-15T08:17:54;113.23;;;21.63;;
3700;SDS011;1866;48.374;10.766;2022-11-15T08:20:23;113.63;;;20.53;;
3700;SDS011;1866;48.374;10.766;2022-11-15T08:22:51;114.63;;;20.50;;
3700;SDS011;1866;48.374;10.766;2022-11-15T08:25:18;114.10;;;21.10;;
3700;SDS011;1866;48.374;10.766;2022-11-15T08:27:44;113.57;;;19.63;;
3700;SDS011;1866;48.374;10.766;2022-11-15T08:30:11;114.50;;;20.40;;
3700;SDS011;1866;48.374;10.766;2022-11-15T08:32:42;115.70;;;20.83;;
3700;SDS011;1866;48.374;10.766;2022-11-15T08:35:08;113.50;;;20.17;;
3700;SDS011;1866;48.374;10.766;2022-11-15T08:37:37;112.27;;;19.60;;
3700;SDS011;1866;48.374;10.766;2022-11-15T08:40:04;111.90;;;19.13;;
3700;SDS011;1866;48.374;10.766;2022-11-15T08:42:32;110.77;;;19.37;;
3700;SDS011;1866;48.374;10.766;2022-11-15T08:44:59;112.97;;;18.90;;
3700;SDS011;1866;48.374;10.766;2022-11-15T08:47:26;111.07;;;19.00;;
3700;SDS011;1866;48.374;10.766;2022-11-15T08:49:53;111.77;;;18.60;;
3700;SDS011;1866;48.374;10.766;2022-11-15T08:52:20;111.10;;;18.20;;
3700;SDS011;1866;48.374;10.766;2022-11-15T08:54:48;111.37;;;18.67;;
3700;SDS011;1866;48.374;10.766;2022-11-15T08:57:15;109.53;;;17.63;;
3700;SDS011;1866;48.374;10.766;2022-11-15T08:59:42;111.17;;;17.03;;
3700;SDS011;1866;48.374;10.766;2022-11-15T09:02:11;111.17;;;17.33;;
3700;SDS011;1866;48.374;10.766;2022-11-15T09:04:39;108.37;;;16.20;;
3700;SDS011;1866;48.374;10.766;2022-11-15T09:07:07;107.90;;;15.80;;
3700;SDS011;1866;48.374;10.766;2022-11-15T09:09:34;107.50;;;14.67;;
3700;SDS011;1866;48.374;10.766;2022-11-15T09:12:03;108.37;;;14.20;;
3700;SDS011;1866;48.374;10.766;2022-11-15T09:14:31;108.33;;;13.40;;
3700;SDS011;1866;48.374;10.766;2022-11-15T09:16:58;107.80;;;13.33;;
3700;SDS011;1866;48.374;10.766;2022-11-15T09:19:25;107.27;;;13.63;;
3700;SDS011;1866;48.374;10.766;2022-11-15T09:21:52;109.37;;;13.50;;
3700;SDS011;1866;48.374;10.766;2022-11-15T09:24:19;109.07;;;13.30;;
3700;SDS011;1866;48.374;10.766;2022-11-15T09:26:46;106.97;;;12.47;;
3700;SDS011;1866;48.374;10.766;2022-11-15T09:29:16;107.47;;;12.97;;
3700;SDS011;1866;48.374;10.766;2022-11-15T09:31:43;105.97;;;12.50;;
3700;SDS011;1866;48.374;10.766;2022-11-15T09:34:10;106.73;;;13.00;;
3700;SDS011;1866;48.374;10.766;2022-11-15T09:36:38;106.30;;;12.90;;
3700;SDS011;1866;48.374;10.766;2022-11-15T09:39:04;107.03;;;12.23;;
3700;SDS011;1866;48.374;10.766;2022-11-15T09:41:38;106.77;;;11.67;;
3700;SDS011;1866;48.374;10.766;2022-11-15T09:44:32;106.83;;;12.07;;
3700;SDS011;1866;48.374;10.766;2022-11-15T09:47:19;107.27;;;12.20;;
3700;SDS011;1866;48.374;10.766;2022-11-15T09:50:01;106.27;;;11.43;;
3700;SDS011;1866;48.374;10.766;2022-11-15T09:52:34;106.03;;;11.63;;
3700;SDS011;1866;48.374;10.766;2022-11-15T09:55:05;107.67;;;11.80;;
3700;SDS011;1866;48.374;10.766;2022-11-15T09:57:37;111.20;;;10.97;;
3700;SDS011;1866;48.374;10.766;2022-11-15T10:00:11;106.77;;;11.70;;
3700;SDS011;1866;48.374;10.766;2022-11-15T10:02:46;107.37;;;11.00;;
3700;SDS011;1866;48.374;10.766;2022-11-15T10:05:23;111.60;;;12.20;;
3700;SDS011;1866;48.374;10.766;2022-11-15T10:07:55;106.00;;;9.90;;
3700;SDS011;1866;48.374;10.766;2022-11-15T10:10:27;108.43;;;11.10;;
3700;SDS011;1866;48.374;10.766;2022-11-15T10:12:57;106.20;;;10.70;;
3700;SDS011;1866;48.374;10.766;2022-11-15T10:15:26;109.97;;;10.60;;
3700;SDS011;1866;48.374;10.766;2022-11-15T10:20:49;107.37;;;9.80;;
3700;SDS011;1866;48.374;10.766;2022-11-15T10:23:22;106.53;;;9.53;;
3700;SDS011;1866;48.374;10.766;2022-11-15T10:25:50;107.40;;;10.23;;
3700;SDS011;1866;48.374;10.766;2022-11-15T10:28:21;106.47;;;9.50;;
3700;SDS011;1866;48.374;10.766;2022-11-15T10:30:53;106.53;;;9.37;;
3700;SDS011;1866;48.374;10.766;2022-11-15T10:33:31;108.57;;;9.90;;
3700;SDS011;1866;48.374;10.766;2022-11-15T10:36:21;106.37;;;9.23;;
3700;SDS011;1866;48.374;10.766;2022-11-15T10:38:51;109.03;;;10.90;;
3700;SDS011;1866;48.374;10.766;2022-11-15T10:41:28;108.17;;;10.60;;
3700;SDS011;1866;48.374;10.766;2022-11-15T10:44:09;106.53;;;10.07;;
3700;SDS011;1866;48.374;10.766;2022-11-15T10:46:48;109.30;;;11.03;;
3700;SDS011;1866;48.374;10.766;2022-11-15T10:49:30;105.80;;;9.40;;
3700;SDS011;1866;48.374;10.766;2022-11-15T10:51:59;107.87;;;9.80;;
3700;SDS011;1866;48.374;10.766;2022-11-15T10:54:30;109.10;;;8.90;;
3700;SDS011;1866;48.374;10.766;2022-11-15T10:57:04;107.37;;;8.40;;
3700;SDS011;1866;48.374;10.766;2022-11-15T10:59:35;109.07;;;9.10;;
3700;SDS011;1866;48.374;10.766;2022-11-15T11:04:58;106.37;;;8.60;;
3700;SDS011;1866;48.374;10.766;2022-11-15T11:07:26;108.00;;;9.53;;
3700;SDS011;1866;48.374;10.766;2022-11-15T11:10:00;109.70;;;9.70;;
3700;SDS011;1866;48.374;10.766;2022-11-15T11:12:29;108.97;;;9.47;;
3700;SDS011;1866;48.374;10.766;2022-11-15T11:14:58;107.10;;;8.77;;
3700;SDS011;1866;48.374;10.766;2022-11-15T11:17:29;107.53;;;8.63;;
3700;SDS011;1866;48.374;10.766;2022-11-15T11:20:07;107.20;;;8.80;;
3700;SDS011;1866;48.374;10.766;2022-11-15T11:22:39;106.83;;;8.13;;
3700;SDS011;1866;48.374;10.766;2022-11-15T11:25:19;106.50;;;8.20;;
3700;SDS011;1866;48.374;10.766;2022-11-15T11:27:57;108.30;;;8.90;;
3700;SDS011;1866;48.374;10.766;2022-11-15T11:30:47;108.57;;;9.07;;
3700;SDS011;1866;48.374;10.766;2022-11-15T11:33:26;106.70;;;8.30;;
3700;SDS011;1866;48.374;10.766;2022-11-15T11:35:59;108.40;;;7.80;;
3700;SDS011;1866;48.374;10.766;2022-11-15T11:38:49;106.90;;;7.30;;
3700;SDS011;1866;48.374;10.766;2022-11-15T11:41:23;105.60;;;7.20;;
3700;SDS011;1866;48.374;10.766;2022-11-15T11:44:15;110.30;;;8.00;;
3700;SDS011;1866;48.374;10.766;2022-11-15T11:46:53;106.57;;;7.30;;
3700;SDS011;1866;48.374;10.766;2022-11-15T11:49:25;106.27;;;7.70;;
3700;SDS011;1866;48.374;10.766;2022-11-15T11:52:00;109.37;;;7.43;;
3700;SDS011;1866;48.374;10.766;2022-11-15T11:54:37;105.80;;;6.83;;
3700;SDS011;1866;48.374;10.766;2022-11-15T11:57:11;107.37;;;8.00;;
3700;SDS011;1866;48.374;10.766;2022-11-15T11:59:43;110.50;;;7.83;;
3700;SDS011;1866;48.374;10.766;2022-11-15T12:02:18;110.60;;;7.30;;
3700;SDS011;1866;48.374;10.766;2022-11-15T12:04:49;107.27;;;7.47;;
3700;SDS011;1866;48.374;10.766;2022-11-15T12:07:20;106.37;;;7.37;;
3700;SDS011;1866;48.374;10.766;2022-11-15T12:09:52;106.23;;;7.20;;
3700;SDS011;1866;48.374;10.766;2022-11-15T12:12:25;108.10;;;7.30;;
3700;SDS011;1866;48.374;10.766;2022-11-15T12:14:59;104.77;;;6.77;;
3700;SDS011;1866;48.374;10.766;2022-11-15T12:17:30;105.20;;;6.70;;
3700;SDS011;1866;48.374;10.766;2022-11-15T12:19:59;106.00;;;7.10;;
3700;SDS011;1866;48.374;10.766;2022-11-15T12:22:33;104.90;;;7.10;;
3700;SDS011;1866;48.374;10.766;2022-11-15T12:25:06;105.80;;;6.90;;
3700;SDS011;1866;48.374;10.766;2022-11-15T12:27:40;105.10;;;6.60;;
3700;SDS011;1866;48.374;10.766;2022-11-15T12:30:13;108.90;;;8.03;;
3700;SDS011;1866;48.374;10.766;2022-11-15T12:32:49;107.53;;;7.50;;
3700;SDS011;1866;48.374;10.766;2022-11-15T12:35:32;107.00;;;7.70;;
3700;SDS011;1866;48.374;10.766;2022-11-15T12:38:01;107.40;;;7.67;;
3700;SDS011;1866;48.374;10.766;2022-11-15T12:40:35;108.43;;;8.10;;
3700;SDS011;1866;48.374;10.766;2022-11-15T12:46:10;106.30;;;7.00;;
3700;SDS011;1866;48.374;10.766;2022-11-15T12:54:59;105.27;;;6.77;;
3700;SDS011;1866;48.374;10.766;2022-11-15T12:57:35;105.20;;;6.60;;
3700;SDS011;1866;48.374;10.766;2022-11-15T13:00:35;104.50;;;6.67;;
3700;SDS011;1866;48.374;10.766;2022-11-15T13:03:21;107.20;;;7.10;;
3700;SDS011;1866;48.374;10.766;2022-11-15T13:05:57;110.80;;;7.10;;
3700;SDS011;1866;48.374;10.766;2022-11-15T13:08:39;107.47;;;6.40;;
3700;SDS011;1866;48.374;10.766;2022-11-15T13:17:15;105.87;;;7.00;;
3700;SDS011;1866;48.374;10.766;2022-11-15T13:19:57;106.33;;;7.50;;
3700;SDS011;1866;48.374;10.766;2022-11-15T13:22:26;105.17;;;7.17;;
3700;SDS011;1866;48.374;10.766;2022-11-15T13:25:15;107.97;;;7.00;;
3700;SDS011;1866;48.374;10.766;2022-11-15T13:27:46;108.37;;;7.80;;
3700;SDS011;1866;48.374;10.766;2022-11-15T13:30:15;105.57;;;7.00;;
3700;SDS011;1866;48.374;10.766;2022-11-15T13:32:45;107.00;;;7.10;;
3700;SDS011;1866;48.374;10.766;2022-11-15T13:35:17;105.30;;;7.40;;
3700;SDS011;1866;48.374;10.766;2022-11-15T13:37:46;105.70;;;7.40;;
3700;SDS011;1866;48.374;10.766;2022-11-15T13:40:24;109.70;;;7.43;;
3700;SDS011;1866;48.374;10.766;2022-11-15T13:42:56;106.27;;;7.27;;
3700;SDS011;1866;48.374;10.766;2022-11-15T13:45:24;104.53;;;7.10;;
3700;SDS011;1866;48.374;10.766;2022-11-15T13:47:51;106.30;;;7.50;;
3700;SDS011;1866;48.374;10.766;2022-11-15T13:50:21;111.00;;;7.67;;
3700;SDS011;1866;48.374;10.766;2022-11-15T13:52:51;105.17;;;7.10;;
3700;SDS011;1866;48.374;10.766;2022-11-15T13:55:19;104.87;;;7.37;;
3700;SDS011;1866;48.374;10.766;2022-11-15T13:57:48;106.17;;;7.40;;
3700;SDS011;1866;48.374;10.766;2022-11-15T14:00:35;104.67;;;6.90;;
3700;SDS011;1866;48.374;10.766;2022-11-15T14:03:10;104.83;;;6.93;;
3700;SDS011;1866;48.374;10.766;2022-11-15T14:05:42;104.30;;;7.57;;
3700;SDS011;1866;48.374;10.766;2022-11-15T14:08:21;104.67;;;7.43;;
3700;SDS011;1866;48.374;10.766;2022-11-15T14:11:05;104.30;;;7.30;;
3700;SDS011;1866;48.374;10.766;2022-11-15T14:13:39;106.17;;;7.70;;
3700;SDS011;1866;48.374;10.766;2022-11-15T14:16:14;104.57;;;7.17;;
3700;SDS011;1866;48.374;10.766;2022-11-15T14:18:43;105.30;;;7.87;;
3700;SDS011;1866;48.374;10.766;2022-11-15T14:21:13;104.60;;;7.47;;
3700;SDS011;1866;48.374;10.766;2022-11-15T14:23:40;105.47;;;7.73;;
3700;SDS011;1866;48.374;10.766;2022-11-15T14:26:10;109.77;;;8.60;;
3700;SDS011;1866;48.374;10.766;2022-11-15T14:28:52;107.57;;;8.57;;
3700;SDS011;1866;48.374;10.766;2022-11-15T14:31:20;108.47;;;9.03;;
3700;SDS011;1866;48.374;10.766;2022-11-15T14:33:48;106.20;;;7.73;;
3700;SDS011;1866;48.374;10.766;2022-11-15T14:36:15;106.13;;;7.40;;
3700;SDS011;1866;48.374;10.766;2022-11-15T14:38:43;106.20;;;7.87;;
3700;SDS011;1866;48.374;10.766;2022-11-15T14:41:16;108.57;;;9.07;;
3700;SDS011;1866;48.374;10.766;2022-11-15T14:43:45;108.77;;;8.10;;
3700;SDS011;1866;48.374;10.766;2022-11-15T14:46:11;104.40;;;7.67;;
3700;SDS011;1866;48.374;10.766;2022-11-15T14:48:40;108.83;;;9.70;;
3700;SDS011;1866;48.374;10.766;2022-11-15T14:51:11;107.47;;;8.60;;
3700;SDS011;1866;48.374;10.766;2022-11-15T14:53:39;103.90;;;7.90;;
3700;SDS011;1866;48.374;10.766;2022-11-15T14:58:39;105.33;;;8.90;;
3700;SDS011;1866;48.374;10.766;2022-11-15T15:01:10;106.23;;;8.80;;
3700;SDS011;1866;48.374;10.766;2022-11-15T15:03:41;104.90;;;8.20;;
3700;SDS011;1866;48.374;10.766;2022-11-15T15:06:09;111.57;;;8.67;;
3700;SDS011;1866;48.374;10.766;2022-11-15T15:08:38;104.47;;;8.37;;
3700;SDS011;1866;48.374;10.766;2022-11-15T15:11:07;105.90;;;8.40;;
3700;SDS011;1866;48.374;10.766;2022-11-15T15:13:40;106.33;;;8.83;;